Latest Coastal Weather Observations for St Helens

IDT60701

Issued at 11:52 am EST Saturday 1 October 2022 (issued every 10 minutes, with the page automatically refreshed every 10 minutes)

About coastal observations | Map of coastal stations | Coastal observations for TAS | Marine services | Other Formats
Station Details ID: 092120 Name: ST HELENS AERODROME Lat: -41.34 Lon: 148.28 Height: 48.0 m
Data from the previous 72 hours. | See also: Recent months at St Helens
Date/Time
EST
Wind Sea
Height
m
Swell Vis
km
Cloud Weather Temp
°C
Press
MSL
hPa
Rain since
9am
mm
Dir  Spd
kts
Gust
kts
Height
m
Period
s
Dir
01/11:30am NNE 7 11 - - - - 10 - - 13.7 1028.2 0.0
01/11:00am N 6 11 - - - - 10 - - 13.5 1028.5 0.0
01/10:30am NNW 4 6 - - - - 10 - - 13.2 1028.8 0.0
01/10:00am NNW 4 6 - - - - 10 - - 12.5 1029.2 0.0
01/09:30am NW 3 6 - - - - 10 - - 12.3 1029.6 0.0
01/09:00am NNW 3 4 - - - - 10 - - 10.8 1029.7 0.0
01/08:30am NW 3 5 - - - - 10 - - 9.1 1029.7 0.0
01/08:00am NW 5 7 - - - - 10 - - 7.5 1029.9 0.0
01/07:30am NW 6 8 - - - - 10 - - 5.7 1030.0 0.0
01/07:00am NW 7 8 - - - - 10 - - 4.1 1030.1 0.0
01/06:30am NW 7 8 - - - - 10 - - 3.2 1030.1 0.0
01/06:00am WNW 6 8 - - - - 10 - - 3.0 1030.0 0.0
01/05:30am NNW 6 8 - - - - 10 - - 3.2 1030.0 0.0
01/05:00am NW 7 9 - - - - 10 - - 3.3 1030.0 0.0
01/04:30am NW 7 8 - - - - 10 - - 3.5 1030.1 0.0
01/04:00am NW 7 8 - - - - 10 Partly cloudy - 3.7 1030.3 0.0
01/03:30am NW 8 9 - - - - 10 Partly cloudy - 4.0 1030.5 0.0
01/03:00am NW 6 8 - - - - 10 - - 4.1 1030.8 0.0
01/02:30am NW 6 7 - - - - 10 - - 4.3 1031.0 0.0
01/02:00am WNW 7 9 - - - - 10 - - 4.5 1031.3 0.0
01/01:30am NW 5 7 - - - - 10 Partly cloudy - 4.5 1031.7 0.0
01/01:00am NW 5 7 - - - - 10 Partly cloudy - 5.0 1032.1 0.0
01/12:30am NW 6 8 - - - - 10 Partly cloudy - 5.3 1032.3 0.0
01/12:00am NW 5 7 - - - - 10 Mostly clear - 5.5 1032.5 0.0
 
Date/Time
EST
Wind Sea
Height
m
Swell Vis
km
Cloud Weather Temp
°C
Press
MSL
hPa
Rain since
9am
mm
Dir  Spd
kts
Gust
kts
Height
m
Period
s
Dir
30/11:30pm NW 6 7 - - - - 10 - - 6.0 1032.6 0.0
30/11:00pm WNW 4 5 - - - - 10 - - 6.9 1032.7 0.0
30/10:30pm W 3 5 - - - - 10 - - 7.3 1033.1 0.0
30/10:00pm WSW 2 5 - - - - 10 Partly cloudy - 7.9 1033.4 0.0
30/09:30pm S 5 9 - - - - 10 Partly cloudy - 8.5 1033.6 0.0
30/09:00pm S 6 9 - - - - 10 Cloudy - 8.6 1033.7 0.0
30/08:30pm S 5 8 - - - - 10 Partly cloudy - 8.1 1033.7 0.0
30/08:00pm S 5 8 - - - - 10 Partly cloudy - 8.0 1033.9 0.0
30/07:30pm S 6 8 - - - - 10 Partly cloudy - 8.0 1033.7 0.0
30/07:00pm S 5 7 - - - - 10 Partly cloudy - 8.2 1033.5 0.0
30/06:30pm S 4 5 - - - - 10 Partly cloudy - 8.1 1033.3 0.0
30/06:00pm S 4 6 - - - - 10 - - 9.2 1033.5 0.0
30/05:30pm SSE 5 9 - - - - 10 Partly cloudy - 10.3 1033.5 0.0
30/05:00pm S 5 9 - - - - 10 Partly cloudy - 11.7 1033.5 0.0
30/04:30pm SSE 6 12 - - - - 10 Partly cloudy - 11.3 1033.5 0.0
30/04:00pm SE 9 14 - - - - 10 Partly cloudy - 11.7 1033.6 0.0
30/03:30pm SSE 6 13 - - - - 10 Partly cloudy - 12.9 1033.7 0.0
30/03:00pm SSE 8 15 - - - - 10 Mostly clear - 12.7 1033.8 0.0
30/02:30pm SE 7 13 - - - - 10 - - 12.8 1033.9 0.0
30/02:00pm S 7 16 - - - - 10 Partly cloudy - 12.9 1034.1 0.0
30/01:30pm SSE 7 14 - - - - 10 Partly cloudy - 12.6 1034.4 0.0
30/01:00pm SSE 8 14 - - - - 10 Partly cloudy - 12.8 1034.7 0.0
30/12:30pm SE 8 18 - - - - 10 Partly cloudy - 11.1 1035.2 0.0
30/12:00pm SE 8 15 - - - - 10 Cloudy - 11.9 1035.1 0.0
30/11:30am SE 8 14 - - - - 10 Partly cloudy - 12.7 1035.3 0.0
30/11:00am SSE 8 15 - - - - 10 - - 12.3 1035.5 0.0
30/10:30am SSE 11 18 - - - - 10 Partly cloudy - 11.8 1035.6 0.0
30/10:00am SE 8 18 - - - - 10 Partly cloudy - 12.4 1035.5 0.0
30/09:30am SE 9 17 - - - - 10 Partly cloudy - 12.2 1035.5 0.0
30/09:00am ESE 5 11 - - - - 10 Mostly cloudy - 11.3 1035.4 5.4
30/08:30am SE 7 14 - - - - 10 Partly cloudy - 12.0 1035.1 5.4
30/08:00am SSE 5 10 - - - - 10 Partly cloudy - 10.9 1035.0 5.4
30/07:30am ESE 6 13 - - - - 10 Partly cloudy - 10.5 1034.8 5.4
30/07:00am SE 7 14 - - - - 10 - - 9.8 1034.5 5.4
30/06:30am SE 7 11 - - - - 10 Partly cloudy - 10.2 1034.2 5.4
30/06:00am ESE 6 11 - - - - 10 Partly cloudy - 9.6 1033.8 5.4
30/05:30am ESE 7 15 - - - - 10 - - 9.4 1033.5 5.4
30/05:00am SE 7 13 - - - - 10 Partly cloudy - 9.4 1033.3 5.4
30/04:30am SE 5 9 - - - - 10 Partly cloudy - 9.0 1033.2 5.4
30/04:00am SSE 8 14 - - - - 10 Partly cloudy - 9.2 1033.2 5.4
30/03:30am SE 8 14 - - - - 10 Partly cloudy - 9.2 1033.2 5.4
30/03:00am SSE 8 16 - - - - 10 Partly cloudy - 9.5 1033.3 5.4
30/02:30am SSE 9 18 - - - - 10 Partly cloudy - 9.1 1033.2 5.4
30/02:00am SE 9 17 - - - - 10 Partly cloudy - 9.7 1033.2 5.4
30/01:30am SE 7 16 - - - - 10 Partly cloudy - 9.7 1033.4 5.4
30/01:00am SE 9 15 - - - - 10 Partly cloudy - 9.6 1033.7 5.4
30/12:30am SSE 9 16 - - - - 10 Partly cloudy - 9.7 1033.7 5.4
30/12:00am SSE 8 14 - - - - 10 Mostly cloudy - 9.8 1033.5 5.4
 
Date/Time
EST
Wind Sea
Height
m
Swell Vis
km
Cloud Weather Temp
°C
Press
MSL
hPa
Rain since
9am
mm
Dir  Spd
kts
Gust
kts
Height
m
Period
s
Dir
29/11:30pm SSE 9 16 - - - - 10 Partly cloudy - 9.9 1033.4 5.4
29/11:00pm SE 9 18 - - - - 10 Partly cloudy - 10.1 1033.4 5.4
29/10:30pm SE 8 13 - - - - 10 Partly cloudy - 10.2 1033.2 5.4
29/10:00pm SSE 9 16 - - - - 10 Partly cloudy - 10.1 1033.1 5.4
29/09:30pm SE 10 16 - - - - 10 Partly cloudy - 10.4 1033.0 5.4
29/09:00pm SSE 10 20 - - - - 10 Mostly cloudy - 10.3 1033.0 5.4
29/08:30pm SE 9 16 - - - - 10 Partly cloudy - 10.5 1032.8 5.4
29/08:00pm SSE 9 17 - - - - 10 Partly cloudy - 10.6 1032.6 5.4
29/07:30pm SSE 9 16 - - - - 10 Partly cloudy - 10.4 1032.3 5.4
29/07:00pm SSE 9 15 - - - - 10 Partly cloudy - 10.5 1032.0 5.4
29/06:30pm SSE 9 20 - - - - 10 Partly cloudy - 10.2 1031.6 5.2
29/06:00pm S 9 18 - - - - 10 Cloudy - 10.0 1031.5 5.2
29/05:30pm SSE 11 19 - - - - 10 Partly cloudy - 10.5 1031.0 5.2
29/05:00pm S 8 14 - - - - 10 Partly cloudy - 9.9 1030.8 5.2
29/04:30pm SSE 10 18 - - - - 10 Partly cloudy - 10.0 1030.6 5.2
29/04:00pm S 13 27 - - - - 10 Partly cloudy - 9.4 1030.1 5.2
29/03:48pm S 15 26 - - - - 10 Partly cloudy - 9.4 1030.0 5.2
29/03:30pm SSE 8 16 - - - - 10 Partly cloudy - 10.1 1029.9 5.2
29/03:28pm SSE 8 16 - - - - 10 Partly cloudy - 9.9 1029.9 5.2
29/03:12pm S 14 26 - - - - 4 Partly cloudy - 9.1 1030.0 5.2
29/03:00pm S 13 22 - - - - 6 Cloudy - 9.4 1029.9 5.0
29/02:49pm S 12 25 - - - - 5 Partly cloudy - 9.6 1029.8 5.0
29/02:42pm S 11 20 - - - - 7 Partly cloudy - 10.0 1029.8 5.0
29/02:30pm S 13 22 - - - - 8 Partly cloudy - 9.6 1029.8 5.0
29/02:07pm S 14 28 - - - - 10 Partly cloudy - 10.2 1029.4 5.0
29/02:00pm S 13 28 - - - - 10 Partly cloudy - 10.2 1029.3 5.0
29/01:41pm S 12 26 - - - - 10 Partly cloudy - 10.5 1029.1 5.0
29/01:30pm S 10 18 - - - - 5 Partly cloudy - 10.7 1029.0 5.0
29/01:25pm S 12 23 - - - - 5 Partly cloudy - 10.2 1029.0 5.0
29/01:19pm S 15 25 - - - - 8 Partly cloudy - 10.3 1028.9 4.8
29/01:00pm S 14 30 - - - - 10 Partly cloudy - 10.4 1028.6 4.8
29/12:42pm SSE 11 20 - - - - 8 Cloudy - 10.8 1028.5 4.8
29/12:30pm S 11 22 - - - - 9 Partly cloudy - 11.1 1028.4 4.4
29/12:12pm SSE 11 21 - - - - 9 Partly cloudy - 11.5 1028.2 4.2
29/12:00pm SSE 10 18 - - - - 10 Cloudy - 11.4 1028.1 4.2
29/11:31am SSE 11 19 - - - - 10 Partly cloudy - 11.3 1028.0 4.2
29/11:30am SSE 11 19 - - - - 10 Partly cloudy - 11.3 1028.0 4.2
29/11:28am SSE 10 19 - - - - 10 Partly cloudy - 11.3 1028.0 4.2
29/11:00am SSE 10 19 - - - - 4 Cloudy - 10.9 1027.8 4.0
29/10:56am S 10 16 - - - - 5 Cloudy - 10.8 1027.7 3.8
29/10:41am SSE 13 26 - - - - 10 Partly cloudy - 11.1 1027.6 3.6
29/10:30am SSE 13 23 - - - - 4 Partly cloudy - 11.0 1027.5 3.6
29/10:15am SSE 15 26 - - - - 2 Partly cloudy - 10.6 1027.4 2.8
29/10:00am SSE 13 24 - - - - 2 Partly cloudy - 10.9 1027.2 2.0
29/09:35am S 15 30 - - - - 2 Partly cloudy - 10.9 1026.7 0.8
29/09:30am S 13 25 - - - - 3 Partly cloudy - 11.1 1026.9 0.6
29/09:28am S 13 25 - - - - 4 Partly cloudy - 11.0 1026.8 0.4
29/09:23am S 12 29 - - - - 10 Partly cloudy - 11.2 1026.8 0.2
29/09:11am SSW 7 19 - - - - 3 Partly cloudy - 11.2 1026.9 0.2
29/09:03am S 6 15 - - - - 5 Partly cloudy - 11.6 1026.8 0.0
29/09:00am S 7 15 - - - - 7 Cloudy - 11.8 1026.7 0.2
29/08:30am S 5 8 - - - - 10 Partly cloudy - 13.5 1026.4 0.2
29/08:00am SSW 6 9 - - - - 10 - - 12.7 1026.1 0.2
29/07:30am SSW 4 7 - - - - 10 - - 11.5 1025.8 0.2
29/07:00am CALM 0 0 - - - - 10 - - 10.3 1025.6 0.2
29/06:30am CALM 0 0 - - - - 10 - - 9.0 1025.2 0.2
29/06:00am WSW 1 3 - - - - 10 - - 8.1 1025.0 0.2
29/05:30am SSW 3 8 - - - - 10 - - 8.2 1024.7 0.2
29/05:00am SSW 4 5 - - - - 10 - - 7.7 1024.2 0.2
29/04:30am SSW 3 5 - - - - 10 - - 7.9 1023.9 0.2
29/04:00am SSW 3 4 - - - - 10 - - 8.2 1023.7 0.2
29/03:30am SSW 2 5 - - - - 10 Partly cloudy - 9.0 1023.5 0.2
29/03:00am SSW 5 7 - - - - 10 Partly cloudy - 9.4 1023.4 0.2
29/02:30am SSW 3 5 - - - - 10 Cloudy - 9.7 1023.5 0.2
29/02:00am S 3 5 - - - - 10 Partly cloudy - 9.8 1023.4 0.2
29/01:30am S 4 6 - - - - 10 Partly cloudy - 9.8 1023.4 0.2
29/01:00am S 6 9 - - - - 10 Partly cloudy - 9.7 1023.3 0.2
29/12:30am SSW 5 7 - - - - 10 - - 9.4 1023.0 0.2
29/12:00am S 7 10 - - - - 10 Mostly cloudy - 10.3 1022.7 0.2
 
Date/Time
EST
Wind Sea
Height
m
Swell Vis
km
Cloud Weather Temp
°C
Press
MSL
hPa
Rain since
9am
mm
Dir  Spd
kts
Gust
kts
Height
m
Period
s
Dir
28/11:30pm S 7 12 - - - - 10 Partly cloudy - 10.5 1022.7 0.2
28/11:00pm S 7 12 - - - - 10 Partly cloudy - 10.5 1022.7 0.2
28/10:30pm S 7 11 - - - - 10 Partly cloudy - 10.6 1022.8 0.2
28/10:00pm S 6 11 - - - - 10 Partly cloudy - 10.8 1022.8 0.2
28/09:30pm S 10 17 - - - - 10 Partly cloudy - 10.9 1022.6 0.2
28/09:00pm S 10 18 - - - - 10 Cloudy - 11.1 1022.4 0.2
28/08:30pm S 8 15 - - - - 10 Cloudy - 11.2 1022.3 0.2
28/08:11pm S 9 16 - - - - 10 Partly cloudy - 11.1 1022.0 0.2
28/08:00pm S 10 16 - - - - 10 Cloudy - 11.1 1021.9 0.2
28/07:30pm S 9 15 - - - - 10 Partly cloudy - 11.0 1021.6 0.2
28/07:00pm SSE 9 17 - - - - 10 Cloudy - 11.5 1021.1 0.0
28/06:41pm SSE 7 15 - - - - 10 Partly cloudy - 11.7 1020.8 0.0
28/06:30pm SSE 7 12 - - - - 10 Cloudy - 12.0 1020.6 0.0
28/06:00pm SSE 7 11 - - - - 10 Cloudy - 12.3 1020.3 0.0
28/05:30pm SSE 6 14 - - - - 10 Cloudy - 12.5 1020.1 0.0
28/05:00pm SSE 7 11 - - - - 10 Partly cloudy - 12.7 1019.9 0.0
28/04:39pm SSE 6 9 - - - - 10 Partly cloudy - 12.9 1019.7 0.0
28/04:30pm SSE 8 15 - - - - 10 Partly cloudy - 12.9 1019.6 0.0
28/04:00pm SSE 8 15 - - - - 10 Cloudy - 13.3 1019.3 0.0
28/03:39pm SSE 10 16 - - - - 10 Partly cloudy - 14.1 1018.9 0.0
28/03:30pm SSE 9 19 - - - - 10 Partly cloudy - 13.8 1018.8 0.0
28/03:00pm SSE 9 17 - - - - 10 Partly cloudy - 14.6 1018.8 0.0
28/02:30pm SSE 8 15 - - - - 10 Partly cloudy - 15.0 1018.7 0.0
28/02:00pm SSE 11 19 - - - - 10 - - 14.4 1018.6 0.0
28/01:30pm SSE 9 16 - - - - 10 Partly cloudy - 14.9 1018.5 0.0
28/01:00pm SSE 8 16 - - - - 10 - - 15.5 1018.7 0.0
28/12:30pm SSE 9 16 - - - - 10 - - 15.0 1018.8 0.0
28/12:00pm SE 9 17 - - - - 10 - - 14.4 1018.9 0.0

Other formats

Comma delimited format used in spreadsheet applications
http://www.bom.gov.au/fwo/IDT60701/IDT60701.95981.axf

JavaScript Object Notation format (JSON) in row-major order
http://www.bom.gov.au/fwo/IDT60701/IDT60701.95981.json

Data quality

Most of these data are generated automatically and are frequently updated. Quality checks on data are not normally performed. It is possible for incorrect values to appear. Refer to information at About Latest Weather Observations and please check the disclaimer before using these data.